Time;durP1;ratioP1;P1;durP2;ratioP2;P2;SDS_P1;SDS_P2;PMS_P1;PMS_P2;Temp;Humidity;BMP_temperature;BMP_pressure;BME280_temperature;BME280_humidity;BME280_pressure;Samples;Min_cycle;Max_cycle;Signal;HPM_P1;HPM_P2
2023/03/22 00:04:42;;;;;;;3.67;1.97;;;;;;;6.43;100.00;97670.25;21936545;27;20051;-54
2023/03/22 00:14:45;;;;;;;3.73;2.57;;;;;;;6.22;100.00;97671.78;21973938;27;20025;-56
2023/03/22 00:24:47;;;;;;;3.17;2.20;;;;;;;6.00;100.00;97668.97;21974073;27;20349;-56
2023/03/22 00:34:49;;;;;;;3.63;2.40;;;;;;;5.85;100.00;97664.09;21973189;27;20409;-54
2023/03/22 00:55:13;;;;;;;2.93;1.77;;;;;;;5.57;100.00;97646.09;21972367;27;20048;-55
2023/03/22 01:05:16;;;;;;;2.73;1.70;;;;;;;5.41;100.00;97637.75;21972444;27;20017;-56
2023/03/22 01:15:19;;;;;;;4.20;2.40;;;;;;;5.27;100.00;97614.94;21971899;27;20436;-54
2023/03/22 01:25:21;;;;;;;3.33;2.13;;;;;;;5.27;100.00;97614.94;21948745;27;20441;-57
2023/03/22 01:35:24;;;;;;;3.47;2.13;;;;;;;5.19;100.00;97615.31;21966827;27;20420;-57
2023/03/22 01:45:40;;;;;;;3.73;2.17;;;;;;;5.16;100.00;97600.50;21947141;27;20064;-56
2023/03/22 01:55:44;;;;;;;2.80;1.97;;;;;;;4.96;100.00;97590.19;21966342;27;20046;-56
2023/03/22 02:05:47;;;;;;;2.77;1.90;;;;;;;4.77;100.00;97594.03;21966475;27;20405;-53
2023/03/22 02:16:07;;;;;;;3.47;2.20;;;;;;;4.60;100.00;97592.06;21947133;27;20045;-57
2023/03/22 02:26:28;;;;;;;4.90;3.10;;;;;;;4.45;100.00;97578.34;21968488;27;20021;-57
2023/03/22 02:37:17;;;;;;;5.40;3.20;;;;;;;4.26;100.00;97572.28;21969665;27;20078;-55
2023/03/22 02:47:30;;;;;;;3.33;1.90;;;;;;;4.07;100.00;97556.31;21970024;27;20030;-56
2023/03/22 02:57:41;;;;;;;3.10;1.40;;;;;;;3.91;100.00;97549.78;21969089;27;20060;-55
2023/03/22 03:07:49;;;;;;;3.47;2.30;;;;;;;3.85;100.00;97537.31;21969202;27;20036;-57
2023/03/22 03:18:03;;;;;;;2.40;1.87;;;;;;;3.87;100.00;97540.59;21969342;27;20021;-57
2023/03/22 03:28:21;;;;;;;3.47;2.17;;;;;;;3.79;100.00;97531.03;21968584;27;20021;-56
2023/03/22 03:38:28;;;;;;;3.13;2.10;;;;;;;3.77;100.00;97532.28;21968558;27;20069;-56
2023/03/22 03:48:34;;;;;;;3.57;2.00;;;;;;;3.79;100.00;97538.25;21968599;27;20021;-56
2023/03/22 03:58:36;;;;;;;1.70;1.40;;;;;;;3.76;100.00;97541.38;21968297;27;20082;-54
2023/03/22 04:08:40;;;;;;;2.00;1.40;;;;;;;3.59;100.00;97539.37;21968246;27;20079;-56
2023/03/22 04:18:42;;;;;;;1.93;1.30;;;;;;;3.51;100.00;97540.50;21968592;27;20034;-56
2023/03/22 04:28:45;;;;;;;2.07;1.50;;;;;;;3.49;100.00;97547.09;21973504;27;20037;-56
2023/03/22 04:38:47;;;;;;;3.83;1.67;;;;;;;3.32;100.00;97537.06;21972797;27;20115;-57
2023/03/22 04:48:50;;;;;;;2.17;1.63;;;;;;;3.19;100.00;97524.69;21952993;27;20032;-55
2023/03/22 04:58:52;;;;;;;2.63;1.30;;;;;;;3.10;100.00;97530.53;21972534;27;20036;-56
2023/03/22 05:08:55;;;;;;;2.63;1.87;;;;;;;3.04;100.00;97525.09;21972211;27;20029;-56
2023/03/22 05:19:01;;;;;;;2.73;1.53;;;;;;;3.04;100.00;97519.75;21972179;27;20034;-56
2023/03/22 05:29:04;;;;;;;4.03;1.50;;;;;;;2.98;100.00;97507.28;21971223;27;20030;-56
2023/03/22 05:39:06;;;;;;;2.77;1.60;;;;;;;2.95;100.00;97513.06;21970825;27;20047;-56
2023/03/22 05:49:09;;;;;;;2.17;1.50;;;;;;;2.96;100.00;97524.56;21971525;27;20021;-56
2023/03/22 05:59:13;;;;;;;3.67;1.50;;;;;;;2.97;100.00;97519.00;21970806;27;20065;-57
2023/03/22 06:09:15;;;;;;;3.23;1.50;;;;;;;3.09;100.00;97520.94;21949873;27;20032;-57
2023/03/22 06:19:19;;;;;;;1.97;1.40;;;;;;;3.22;100.00;97526.06;21970176;27;20025;-55
2023/03/22 06:29:21;;;;;;;2.40;1.53;;;;;;;3.48;100.00;97524.09;21969197;27;20025;-57
2023/03/22 06:39:24;;;;;;;3.30;1.70;;;;;;;3.88;100.00;97526.16;21950216;27;20049;-57
2023/03/22 06:49:27;;;;;;;3.83;1.67;;;;;;;4.42;100.00;97528.75;21949648;27;20035;-55
2023/03/22 06:59:30;;;;;;;3.97;1.80;;;;;;;4.97;100.00;97540.88;21969466;27;20036;-56
2023/03/22 07:09:32;;;;;;;3.43;2.37;;;;;;;5.60;100.00;97533.78;21969251;27;20028;-54
2023/03/22 07:19:35;;;;;;;4.10;1.90;;;;;;;6.29;100.00;97537.34;21968859;27;20026;-55
2023/03/22 07:29:37;;;;;;;3.63;2.43;;;;;;;7.02;100.00;97539.16;21967980;27;20030;-56
2023/03/22 07:39:40;;;;;;;5.20;2.80;;;;;;;7.70;100.00;97542.31;21968603;27;20025;-57
2023/03/22 07:49:43;;;;;;;2.70;1.80;;;;;;;8.34;100.00;97551.47;21968115;27;20086;-56
2023/03/22 07:59:45;;;;;;;7.07;2.63;;;;;;;8.92;100.00;97551.59;21952666;27;20363;-56
2023/03/22 08:09:49;;;;;;;5.90;2.33;;;;;;;9.53;100.00;97544.00;21973838;27;20036;-57
2023/03/22 08:19:55;;;;;;;4.00;1.80;;;;;;;10.20;100.00;97552.19;21972730;27;20017;-57
2023/03/22 08:29:57;;;;;;;5.30;1.90;;;;;;;10.91;100.00;97545.06;21973157;27;20044;-57
2023/03/22 08:40:00;;;;;;;2.23;1.37;;;;;;;11.63;100.00;97539.34;21952882;27;20026;-57
2023/03/22 08:50:04;;;;;;;1.60;1.30;;;;;;;12.30;100.00;97545.13;21972694;27;20381;-57
2023/03/22 09:00:09;;;;;;;3.75;1.67;;;;;;;13.01;98.85;97556.38;21971955;27;20040;-57
2023/03/22 09:10:11;;;;;;;2.17;1.20;;;;;;;13.74;90.42;97534.56;21972459;27;20091;-57
2023/03/22 09:20:14;;;;;;;5.62;1.40;;;;;;;14.24;87.66;97526.72;21952134;27;20049;-57
2023/03/22 09:30:17;;;;;;;2.67;1.08;;;;;;;14.43;82.03;97512.28;21952514;27;20034;-56
2023/03/22 09:40:26;;;;;;;1.67;1.10;;;;;;;14.56;81.06;97522.34;21971040;27;20044;-57
2023/03/22 09:50:31;;;;;;;2.00;0.90;;;;;;;14.67;77.90;97506.69;21950956;27;20025;-57
2023/03/22 10:00:42;;;;;;;2.70;1.37;;;;;;;15.37;77.98;97496.56;21950132;27;20077;-56
2023/03/22 10:10:45;;;;;;;1.95;0.60;;;;;;;16.05;70.56;97483.06;21970415;27;20024;-57
2023/03/22 10:20:58;;;;;;;3.47;1.65;;;;;;;16.43;61.96;97465.47;21969170;27;20341;-57
2023/03/22 10:31:01;;;;;;;2.17;1.00;;;;;;;16.97;61.09;97456.41;21950436;27;20032;-58
2023/03/22 10:41:08;;;;;;;2.42;0.60;;;;;;;17.42;56.13;97454.25;21969802;27;20346;-56
2023/03/22 10:51:37;;;;;;;2.40;0.85;;;;;;;18.05;49.82;97450.41;21969750;27;20018;-58
2023/03/22 11:01:44;;;;;;;1.52;0.70;;;;;;;18.43;46.93;97455.13;21969014;27;20372;-58
2023/03/22 11:11:55;;;;;;;2.40;0.77;;;;;;;18.14;49.27;97442.97;21969059;27;20039;-58
2023/03/22 11:22:00;;;;;;;1.37;0.70;;;;;;;18.40;48.33;97436.62;21968448;27;20442;-54
2023/03/22 11:32:03;;;;;;;1.10;0.80;;;;;;;18.73;48.14;97430.53;21972140;27;20330;-54
2023/03/22 11:42:06;;;;;;;1.97;1.20;;;;;;;18.89;47.78;97431.59;21974619;27;20029;-54
2023/03/22 11:52:15;;;;;;;2.17;1.00;;;;;;;19.05;47.69;97409.94;21954708;27;20073;-55
2023/03/22 12:02:42;;;;;;;4.37;0.82;;;;;;;19.85;47.49;97413.69;21974123;27;20128;-54
2023/03/22 12:12:52;;;;;;;2.97;1.02;;;;;;;19.63;45.82;97401.09;21973901;27;20034;-54
2023/03/22 12:22:54;;;;;;;1.15;0.80;;;;;;;19.91;43.75;97384.09;21973218;27;20103;-55
2023/03/22 12:33:03;;;;;;;1.33;0.93;;;;;;;20.34;45.65;97371.81;21973275;27;20031;-54
2023/03/22 12:43:16;;;;;;;1.08;0.60;;;;;;;20.51;43.31;97375.50;21953200;27;20024;-55
2023/03/22 12:53:21;;;;;;;0.70;0.60;;;;;;;20.76;41.68;97379.87;21972689;27;20026;-55
2023/03/22 13:03:46;;;;;;;1.20;0.60;;;;;;;21.17;44.05;97363.44;21972055;27;20069;-55
2023/03/22 13:13:49;;;;;;;1.05;0.30;;;;;;;21.10;39.77;97339.31;21971714;27;20021;-54
2023/03/22 13:23:56;;;;;;;2.67;0.60;;;;;;;21.32;39.82;97332.47;21951768;27;20040;-55
2023/03/22 13:34:02;;;;;;;1.50;0.70;;;;;;;21.64;40.49;97340.84;21971537;27;20417;-53
2023/03/22 13:44:29;;;;;;;0.65;0.45;;;;;;;21.91;39.53;97321.91;21971341;27;20029;-55
2023/03/22 13:54:42;;;;;;;1.55;0.75;;;;;;;21.59;40.04;97321.03;21951314;27;20068;-55
2023/03/22 14:04:54;;;;;;;1.42;0.70;;;;;;;21.75;37.55;97301.78;21970483;27;20386;-55
2023/03/22 14:15:01;;;;;;;1.90;0.68;;;;;;;21.94;38.73;97298.38;21970638;27;20071;-54
2023/03/22 14:25:06;;;;;;;1.48;0.70;;;;;;;21.61;40.33;97286.53;21950390;27;20342;-54
2023/03/22 14:35:17;;;;;;;1.42;0.73;;;;;;;21.24;40.46;97283.94;21969425;27;20029;-54
2023/03/22 14:45:21;;;;;;;0.95;0.55;;;;;;;21.61;42.37;97280.22;21969286;27;20089;-55
2023/03/22 14:55:26;;;;;;;1.40;0.47;;;;;;;21.37;41.10;97270.13;21969567;27;20080;-55
2023/03/22 15:05:35;;;;;;;1.48;0.60;;;;;;;21.27;40.27;97254.94;21949148;27;20028;-54
2023/03/22 15:15:39;;;;;;;1.12;0.65;;;;;;;20.87;40.34;97250.25;21948801;27;20041;-54
2023/03/22 15:25:45;;;;;;;0.60;0.50;;;;;;;21.05;41.67;97243.34;21968390;27;20338;-54
2023/03/22 15:35:51;;;;;;;1.52;0.50;;;;;;;20.81;42.52;97238.72;21948989;27;20032;-54
2023/03/22 15:46:07;;;;;;;1.27;0.60;;;;;;;20.62;41.81;97239.31;21930614;27;20029;-54
2023/03/22 15:56:35;;;;;;;1.60;0.70;;;;;;;20.64;40.08;97242.53;21948311;27;20029;-54
2023/03/22 16:06:36;;;;;;;1.02;0.60;;;;;;;20.15;42.27;97235.91;21968363;27;20021;-55
2023/03/22 16:16:39;;;;;;;2.78;1.23;;;;;;;19.78;42.07;97238.62;21969541;27;20345;-55
2023/03/22 16:26:40;;;;;;;1.85;1.10;;;;;;;19.49;43.16;97234.13;21973949;27;20315;-55
2023/03/22 16:36:41;;;;;;;1.73;0.75;;;;;;;19.10;46.88;97237.09;21953091;27;20029;-55
2023/03/22 16:46:44;;;;;;;0.60;0.40;;;;;;;18.75;47.82;97236.56;21973024;27;20029;-55
2023/03/22 16:56:45;;;;;;;1.05;0.70;;;;;;;18.28;49.27;97237.50;21972424;27;20052;-53
2023/03/22 17:06:46;;;;;;;0.95;0.40;;;;;;;17.70;49.74;97248.06;21952224;27;20029;-55
2023/03/22 17:16:48;;;;;;;3.20;0.70;;;;;;;17.17;52.63;97261.03;21971737;27;20029;-52
2023/03/22 17:26:50;;;;;;;1.02;0.55;;;;;;;16.61;55.44;97258.94;21971261;27;20021;-54
2023/03/22 17:36:51;;;;;;;2.15;1.00;;;;;;;15.82;59.68;97250.53;21951714;27;20029;-52
2023/03/22 17:46:53;;;;;;;5.85;2.30;;;;;;;15.04;65.52;97259.03;21971808;27;20055;-52
2023/03/22 17:56:55;;;;;;;12.75;3.90;;;;;;;14.22;72.96;97253.47;21971078;27;20457;-54
2023/03/22 18:06:56;;;;;;;7.20;2.60;;;;;;;13.48;82.21;97254.38;21950543;27;20025;-54
2023/03/22 18:16:58;;;;;;;22.45;9.13;;;;;;;12.86;88.63;97256.16;21932551;27;20409;-57
2023/03/22 18:27:01;;;;;;;66.10;32.60;;;;;;;12.30;94.23;97252.34;21969662;27;20040;-54
2023/03/22 18:37:03;;;;;;;17.30;8.60;;;;;;;11.90;97.75;97243.59;21969231;27;20052;-57
2023/03/22 18:47:06;;;;;;;9.60;4.80;;;;;;;11.61;99.63;97249.06;21969752;27;20076;-57
2023/03/22 18:57:08;;;;;;;4.73;2.27;;;;;;;11.42;100.00;97232.75;21969143;27;20048;-56
2023/03/22 19:07:09;;;;;;;2.70;1.50;;;;;;;11.28;100.00;97246.16;21949931;27;20029;-56
2023/03/22 19:17:11;;;;;;;3.23;1.73;;;;;;;11.12;100.00;97259.78;21968470;27;20043;-56
2023/03/22 19:27:12;;;;;;;2.53;1.50;;;;;;;11.09;100.00;97251.47;21968686;27;20037;-54
2023/03/22 19:37:14;;;;;;;3.07;1.47;;;;;;;11.01;100.00;97247.44;21968741;27;20100;-56
2023/03/22 19:47:16;;;;;;;3.17;1.90;;;;;;;10.88;100.00;97248.91;21968550;27;20044;-54
2023/03/22 19:57:17;;;;;;;5.20;1.90;;;;;;;10.80;100.00;97249.50;21974296;27;20410;-56
2023/03/22 20:07:23;;;;;;;3.57;1.63;;;;;;;10.70;100.00;97258.47;21954609;27;20060;-56
2023/03/22 20:17:25;;;;;;;4.33;1.97;;;;;;;10.62;100.00;97256.38;21973570;27;20083;-56
2023/03/22 20:27:27;;;;;;;2.40;1.73;;;;;;;10.50;100.00;97257.53;21953769;27;20349;-55
2023/03/22 20:37:28;;;;;;;5.83;1.47;;;;;;;10.38;100.00;97262.47;21972999;27;20033;-55
2023/03/22 20:47:30;;;;;;;2.63;1.50;;;;;;;10.24;100.00;97266.84;21953337;27;20037;-55
2023/03/22 20:57:31;;;;;;;4.10;2.07;;;;;;;10.12;100.00;97267.97;21972737;27;20394;-55
2023/03/22 21:07:32;;;;;;;2.80;1.47;;;;;;;9.99;100.00;97277.47;21972031;27;20066;-56
2023/03/22 21:17:35;;;;;;;2.73;1.50;;;;;;;9.89;100.00;97284.81;21971864;27;20034;-54
2023/03/22 21:27:37;;;;;;;1.73;1.30;;;;;;;9.83;100.00;97284.00;21915702;27;20346;-55
2023/03/22 21:37:39;;;;;;;2.03;1.37;;;;;;;9.80;100.00;97293.47;21951827;27;20052;-56
2023/03/22 21:47:42;;;;;;;2.30;1.93;;;;;;;9.75;100.00;97304.28;21971085;27;20039;-57
2023/03/22 21:57:43;;;;;;;2.90;1.67;;;;;;;9.63;100.00;97298.34;21970768;27;20339;-56
2023/03/22 22:07:45;;;;;;;3.40;1.37;;;;;;;9.55;100.00;97285.41;21951087;27;20081;-57
2023/03/22 22:17:46;;;;;;;3.50;1.90;;;;;;;9.47;100.00;97279.50;21950732;27;20033;-54
2023/03/22 22:27:47;;;;;;;2.47;1.60;;;;;;;9.45;100.00;97265.44;21950337;27;20021;-55
2023/03/22 22:37:48;;;;;;;3.17;2.07;;;;;;;9.47;100.00;97276.78;21970237;27;20025;-56
2023/03/22 22:47:50;;;;;;;4.00;2.23;;;;;;;9.46;100.00;97275.16;21969736;27;20307;-57
2023/03/22 22:57:51;;;;;;;3.93;2.30;;;;;;;9.47;100.00;97260.59;21968984;27;20059;-57
2023/03/22 23:07:53;;;;;;;2.20;1.90;;;;;;;9.50;100.00;97265.44;21949443;27;20084;-53
2023/03/22 23:17:54;;;;;;;1.70;1.30;;;;;;;9.45;100.00;97268.16;21949405;27;20052;-55
2023/03/22 23:27:56;;;;;;;3.77;1.23;;;;;;;9.37;100.00;97252.50;21880078;27;20041;-56
2023/03/22 23:37:59;;;;;;;1.70;1.23;;;;;;;9.36;100.00;97252.78;21882703;27;20033;-56
2023/03/22 23:48:00;;;;;;;1.83;1.40;;;;;;;9.31;100.00;97240.13;21883479;27;20033;-55
2023/03/22 23:58:01;;;;;;;2.57;1.30;;;;;;;9.27;100.00;97245.25;21883963;27;20033;-54
